createdAt,value
2023-02-11T00:00:23.983Z,21.35
2023-02-11T00:06:54.930Z,19.45
2023-02-11T00:10:11.959Z,20.90
2023-02-11T00:13:13.932Z,20.77
2023-02-11T00:16:30.038Z,19.17
2023-02-11T00:19:45.004Z,20.95
2023-02-11T00:22:53.646Z,21.35
2023-02-11T00:26:11.981Z,21.20
2023-02-11T00:29:14.950Z,20.33
2023-02-11T00:32:30.181Z,20.00
2023-02-11T00:35:39.068Z,19.87
2023-02-11T00:38:49.196Z,19.80
2023-02-11T00:42:04.984Z,20.27
2023-02-11T00:45:16.326Z,20.73
2023-02-11T00:48:25.122Z,21.37
2023-02-11T00:51:40.009Z,20.27
2023-02-11T00:54:42.429Z,21.05
2023-02-11T00:57:57.931Z,19.00
2023-02-11T01:01:00.153Z,20.23
2023-02-11T01:04:15.018Z,20.70
2023-02-11T01:07:16.939Z,19.17
2023-02-11T01:10:32.008Z,20.02
2023-02-11T01:13:41.950Z,19.30
2023-02-11T01:16:57.017Z,18.73
2023-02-11T01:20:08.749Z,20.48
2023-02-11T01:23:23.992Z,19.83
2023-02-11T01:26:33.059Z,20.05
2023-02-11T01:29:48.010Z,20.83
2023-02-11T01:32:57.964Z,20.10
2023-02-11T01:36:08.254Z,18.85
2023-02-11T01:39:20.205Z,21.08
2023-02-11T01:42:37.998Z,19.55
2023-02-11T01:46:02.912Z,20.77
2023-02-11T01:49:16.002Z,19.17
2023-02-11T01:52:44.803Z,19.67
2023-02-11T01:55:55.514Z,19.40
2023-02-11T01:59:12.940Z,18.50
2023-02-11T02:02:28.948Z,19.40
2023-02-11T02:05:45.998Z,19.12
2023-02-11T02:09:07.949Z,19.73
2023-02-11T02:12:16.901Z,19.25
2023-02-11T02:15:29.468Z,19.77
2023-02-11T02:18:54.912Z,19.00
2023-02-11T02:22:36.994Z,18.63
2023-02-11T02:26:13.345Z,18.50
2023-02-11T02:29:38.984Z,19.37
2023-02-11T02:33:22.502Z,19.33
2023-02-11T02:36:42.565Z,18.67
2023-02-11T02:39:56.964Z,17.17
2023-02-11T02:43:07.817Z,17.75
2023-02-11T02:46:29.124Z,19.20
2023-02-11T02:49:43.921Z,20.17
2023-02-11T02:53:13.213Z,17.90
2023-02-11T02:56:44.060Z,18.42
2023-02-11T03:00:16.968Z,19.98
2023-02-11T03:03:41.256Z,18.58
2023-02-11T03:07:07.006Z,20.70
2023-02-11T03:10:22.990Z,19.80
2023-02-11T03:13:35.155Z,20.30
2023-02-11T03:16:51.973Z,20.45
2023-02-11T03:20:03.442Z,20.17
2023-02-11T03:23:25.975Z,20.62
2023-02-11T03:26:38.057Z,21.33
2023-02-11T03:30:07.947Z,20.23
2023-02-11T03:33:30.038Z,21.87
2023-02-11T03:36:45.349Z,20.77
2023-02-11T03:40:06.986Z,20.62
2023-02-11T03:43:20.938Z,21.13
2023-02-11T03:46:41.080Z,20.40
2023-02-11T03:49:52.972Z,19.77
2023-02-11T03:53:03.745Z,20.70
2023-02-11T03:56:16.063Z,31.70
2023-02-11T03:59:25.278Z,23.67
2023-02-11T04:02:38.983Z,19.50
2023-02-11T04:05:53.999Z,19.42
2023-02-11T04:08:56.007Z,19.67
2023-02-11T04:12:12.082Z,20.65
2023-02-11T04:15:14.217Z,18.87
2023-02-11T04:18:29.212Z,18.53
2023-02-11T04:21:37.324Z,18.05
2023-02-11T04:24:51.992Z,18.00
2023-02-11T04:28:07.040Z,18.48
2023-02-11T04:31:09.137Z,18.63
2023-02-11T04:34:24.978Z,19.77
2023-02-11T04:37:33.955Z,19.60
2023-02-11T04:40:49.002Z,19.17
2023-02-11T04:43:58.036Z,19.58
2023-02-11T04:47:06.786Z,19.27
2023-02-11T04:50:16.009Z,19.70
2023-02-11T04:53:31.005Z,20.90
2023-02-11T04:56:46.168Z,20.70
2023-02-11T04:59:55.599Z,21.75
2023-02-11T05:03:04.038Z,20.63
2023-02-11T05:06:20.160Z,21.80
2023-02-11T05:09:22.559Z,21.60
2023-02-11T05:12:36.980Z,22.95
2023-02-11T05:15:38.818Z,20.77
2023-02-11T05:18:54.170Z,21.60
2023-02-11T05:22:03.669Z,19.30
2023-02-11T05:25:19.046Z,20.52
2023-02-11T05:28:27.165Z,20.95
2023-02-11T05:31:42.052Z,23.02
2023-02-11T05:34:50.060Z,22.07
2023-02-11T05:37:58.718Z,22.65
2023-02-11T05:41:08.035Z,23.48
2023-02-11T05:44:23.044Z,24.12
2023-02-11T05:47:31.154Z,23.95
2023-02-11T05:50:46.054Z,24.07
2023-02-11T05:53:48.084Z,25.10
2023-02-11T05:57:03.096Z,26.12
2023-02-11T06:00:13.006Z,25.35
2023-02-11T06:03:28.270Z,25.50
2023-02-11T06:06:37.186Z,26.90
2023-02-11T06:09:52.009Z,25.83
2023-02-11T06:12:54.020Z,24.73
2023-02-11T06:16:10.243Z,26.37
2023-02-11T06:19:19.999Z,26.50
2023-02-11T06:22:42.053Z,26.47
2023-02-11T06:25:51.374Z,27.30
2023-02-11T06:29:00.652Z,26.30
2023-02-11T06:32:23.316Z,26.10
2023-02-11T06:35:39.486Z,24.98
2023-02-11T06:38:55.024Z,27.30
2023-02-11T06:41:57.108Z,24.45
2023-02-11T06:45:13.456Z,25.92
2023-02-11T06:48:22.057Z,24.15
2023-02-11T06:51:31.015Z,27.58
2023-02-11T06:54:40.082Z,26.00
2023-02-11T06:57:48.782Z,24.35
2023-02-11T07:00:57.083Z,24.70
2023-02-11T07:04:12.043Z,23.42
2023-02-11T07:07:14.006Z,24.23
2023-02-11T07:10:29.085Z,25.57
2023-02-11T07:13:37.044Z,24.50
2023-02-11T07:16:53.078Z,24.40
2023-02-11T07:20:02.036Z,25.20
2023-02-11T07:23:11.027Z,26.58
2023-02-11T07:26:30.115Z,24.30
2023-02-11T07:29:39.075Z,24.45
2023-02-11T07:32:56.084Z,24.75
2023-02-11T07:36:01.023Z,26.15
2023-02-11T07:39:16.303Z,24.65
2023-02-11T07:42:18.291Z,26.70
2023-02-11T07:45:33.083Z,24.40
2023-02-11T07:48:48.073Z,25.40
2023-02-11T07:51:49.979Z,23.73
2023-02-11T07:55:05.148Z,23.23
2023-02-11T07:58:20.132Z,23.57
2023-02-11T08:01:27.714Z,20.30
2023-02-11T08:04:43.183Z,21.48
2023-02-11T08:07:45.416Z,21.62
2023-02-11T08:11:01.064Z,22.48
2023-02-11T08:14:29.401Z,20.83
2023-02-11T08:17:45.094Z,20.20
2023-02-11T08:20:54.047Z,20.35
2023-02-11T08:24:09.063Z,19.40
2023-02-11T08:27:17.047Z,19.27
2023-02-11T08:30:27.768Z,18.90
2023-02-11T08:33:43.569Z,17.20
2023-02-11T08:37:09.289Z,16.20
2023-02-11T08:40:11.524Z,15.98
2023-02-11T08:43:26.153Z,17.00
2023-02-11T08:46:28.371Z,17.40
2023-02-11T08:49:43.075Z,16.90
2023-02-11T08:52:52.941Z,17.55
2023-02-11T08:56:08.117Z,16.08
2023-02-11T08:59:27.105Z,17.23
2023-02-11T09:02:29.230Z,17.40
2023-02-11T09:05:49.449Z,16.77
2023-02-11T09:08:54.321Z,16.77
2023-02-11T09:12:12.374Z,16.48
2023-02-11T09:15:14.301Z,18.05
2023-02-11T09:18:48.480Z,17.43
2023-02-11T09:22:01.841Z,17.17
2023-02-11T09:25:18.117Z,17.73
2023-02-11T09:28:26.134Z,18.12
2023-02-11T09:31:52.785Z,19.70
2023-02-11T09:35:10.095Z,18.90
2023-02-11T09:38:18.132Z,18.47
2023-02-11T09:41:51.012Z,19.27
2023-02-11T09:45:00.128Z,20.17
2023-02-11T09:48:21.085Z,21.05
2023-02-11T09:51:51.107Z,21.03
2023-02-11T09:55:11.098Z,20.13
2023-02-11T09:58:25.779Z,20.17
2023-02-11T10:02:05.127Z,21.48
2023-02-11T10:05:40.126Z,19.08
2023-02-11T10:09:14.189Z,19.63
2023-02-11T10:12:49.180Z,19.90
2023-02-11T10:16:23.490Z,18.92
2023-02-11T10:19:49.122Z,18.87
2023-02-11T10:23:01.824Z,19.00
2023-02-11T10:26:19.259Z,18.77
2023-02-11T10:29:41.373Z,18.77
2023-02-11T10:33:06.125Z,18.85
2023-02-11T10:36:24.203Z,19.73
2023-02-11T10:39:33.496Z,19.10
2023-02-11T10:42:43.142Z,17.70
2023-02-11T10:45:53.549Z,19.40
2023-02-11T10:49:08.165Z,17.60
2023-02-11T10:52:31.121Z,18.50
2023-02-11T10:55:33.086Z,18.98
2023-02-11T10:58:53.122Z,19.20
2023-02-11T11:02:06.166Z,18.37
2023-02-11T11:05:19.517Z,17.62
2023-02-11T11:08:28.183Z,17.95
2023-02-11T11:11:52.189Z,17.65
2023-02-11T11:15:20.213Z,18.93
2023-02-11T11:18:23.466Z,18.00
2023-02-11T11:21:47.601Z,17.95
2023-02-11T11:25:02.297Z,17.98
2023-02-11T11:28:23.474Z,18.02
2023-02-11T11:31:37.312Z,17.13
2023-02-11T11:34:58.154Z,17.17
2023-02-11T11:38:10.261Z,15.77
2023-02-11T11:41:36.497Z,16.27
2023-02-11T11:44:57.463Z,17.33
2023-02-11T11:48:30.192Z,16.93
2023-02-11T11:51:42.309Z,16.60
2023-02-11T11:54:57.153Z,16.08
2023-02-11T11:58:17.192Z,15.18
2023-02-11T12:01:45.173Z,14.98
2023-02-11T12:05:16.176Z,13.87
2023-02-11T12:08:36.770Z,12.43
2023-02-11T12:12:10.174Z,13.07
2023-02-11T12:15:30.407Z,12.40
2023-02-11T12:19:20.228Z,13.93
2023-02-11T12:22:43.309Z,11.97
2023-02-11T12:26:18.330Z,12.33
2023-02-11T12:29:46.206Z,12.90
2023-02-11T12:33:15.220Z,13.15
2023-02-11T12:37:10.305Z,11.90
2023-02-11T12:40:33.805Z,12.55
2023-02-11T12:43:45.209Z,13.32
2023-02-11T12:47:09.847Z,12.50
2023-02-11T12:50:36.610Z,11.93
2023-02-11T12:54:07.235Z,11.93
2023-02-11T12:57:23.105Z,11.98
2023-02-11T13:01:00.822Z,10.80
2023-02-11T13:04:29.861Z,11.30
2023-02-11T13:07:51.205Z,11.33
2023-02-11T13:11:13.915Z,11.18
2023-02-11T13:14:36.230Z,10.43
2023-02-11T13:18:08.171Z,10.15
2023-02-11T13:21:54.270Z,10.37
2023-02-11T13:25:32.551Z,10.13
2023-02-11T13:29:06.680Z,10.43
2023-02-11T13:32:22.193Z,9.75
2023-02-11T13:35:44.429Z,9.73
2023-02-11T13:39:04.398Z,9.77
2023-02-11T13:42:16.404Z,10.37
2023-02-11T13:45:36.455Z,9.95
2023-02-11T13:48:48.721Z,12.75
2023-02-11T13:52:05.373Z,10.10
2023-02-11T13:55:29.312Z,10.37
2023-02-11T13:58:48.521Z,10.47
2023-02-11T14:02:34.285Z,9.77
2023-02-11T14:06:15.398Z,10.13
2023-02-11T14:09:45.185Z,9.63
2023-02-11T14:13:27.271Z,10.53
2023-02-11T14:17:02.374Z,10.50
2023-02-11T14:20:37.311Z,10.05
2023-02-11T14:23:47.190Z,10.05
2023-02-11T14:27:14.217Z,11.50
2023-02-11T14:30:39.414Z,11.80
2023-02-11T14:34:15.257Z,11.33
2023-02-11T14:38:03.406Z,10.95
2023-02-11T14:41:22.916Z,10.00
2023-02-11T14:44:40.205Z,11.60
2023-02-11T14:47:48.918Z,11.33
2023-02-11T14:51:15.486Z,10.67
2023-02-11T14:54:29.359Z,17.40
2023-02-11T14:57:44.284Z,11.20
2023-02-11T15:01:04.344Z,11.52
2023-02-11T15:04:43.413Z,11.77
2023-02-11T15:07:55.017Z,11.10
2023-02-11T15:11:07.423Z,11.43
2023-02-11T15:14:28.424Z,11.20
2023-02-11T15:17:38.471Z,10.82
2023-02-11T15:21:00.248Z,11.20
2023-02-11T15:24:35.381Z,11.17
2023-02-11T15:27:49.597Z,11.93
2023-02-11T15:31:10.322Z,11.88
2023-02-11T15:34:30.286Z,12.27
2023-02-11T15:37:50.564Z,11.57
2023-02-11T15:41:07.543Z,12.67
2023-02-11T15:44:35.266Z,11.35
2023-02-11T15:47:51.502Z,11.48
2023-02-11T15:54:57.937Z,11.60
2023-02-11T15:58:10.310Z,13.23
2023-02-11T16:01:18.896Z,12.57
2023-02-11T16:04:28.085Z,12.97
2023-02-11T16:07:49.891Z,12.03
2023-02-11T16:11:05.569Z,12.25
2023-02-11T16:14:34.838Z,11.93
2023-02-11T16:17:44.741Z,12.40
2023-02-11T16:20:54.856Z,14.20
2023-02-11T16:24:10.854Z,11.90
2023-02-11T16:27:32.866Z,12.85
2023-02-11T16:30:42.958Z,12.20
2023-02-11T16:33:58.861Z,11.32
2023-02-11T16:37:10.825Z,14.33
2023-02-11T16:40:19.897Z,14.37
2023-02-11T16:43:28.114Z,12.40
2023-02-11T16:46:37.982Z,11.88
2023-02-11T16:49:48.857Z,11.50
2023-02-11T16:52:58.989Z,11.97
2023-02-11T16:56:23.004Z,12.30
2023-02-11T16:59:25.632Z,13.40
2023-02-11T17:02:43.901Z,12.88
2023-02-11T17:05:55.588Z,12.48
2023-02-11T17:09:04.803Z,12.27
2023-02-11T17:12:19.891Z,12.73
2023-02-11T17:15:28.431Z,11.77
2023-02-11T17:18:42.864Z,11.27
2023-02-11T17:21:52.789Z,13.62
2023-02-11T17:25:01.884Z,12.83
2023-02-11T17:28:16.981Z,12.47
2023-02-11T17:31:19.509Z,11.77
2023-02-11T17:34:34.847Z,12.82
2023-02-11T17:37:43.672Z,12.13
2023-02-11T17:40:51.880Z,13.50
2023-02-11T17:44:07.906Z,14.03
2023-02-11T17:47:16.829Z,12.00
2023-02-11T17:50:28.880Z,12.05
2023-02-11T17:53:44.185Z,12.18
2023-02-11T17:56:59.925Z,13.10
2023-02-11T18:00:15.913Z,12.70
2023-02-11T18:03:18.085Z,13.68
2023-02-11T18:06:33.940Z,12.98
2023-02-11T18:09:38.506Z,13.40
2023-02-11T18:12:53.889Z,13.80
2023-02-11T18:16:07.899Z,12.90
2023-02-11T18:19:17.421Z,12.80
2023-02-11T18:22:25.912Z,13.90
2023-02-11T18:25:34.933Z,14.65
2023-02-11T18:28:46.061Z,13.60
2023-02-11T18:31:55.980Z,13.83
2023-02-11T18:35:04.917Z,14.07
2023-02-11T18:38:13.875Z,13.65
2023-02-11T18:41:22.877Z,12.88
2023-02-11T18:44:37.937Z,13.60
2023-02-11T18:47:46.762Z,14.67
2023-02-11T18:51:02.893Z,13.68
2023-02-11T18:54:18.909Z,14.02
2023-02-11T18:57:28.537Z,12.48
2023-02-11T19:00:46.923Z,13.00
2023-02-11T19:03:49.354Z,13.63
2023-02-11T19:07:03.984Z,13.95
2023-02-11T19:10:07.033Z,13.52
2023-02-11T19:13:21.890Z,14.20
2023-02-11T19:16:30.006Z,14.90
2023-02-11T19:19:44.908Z,13.40
2023-02-11T19:22:59.979Z,14.75
2023-02-11T19:26:08.967Z,15.35
2023-02-11T19:29:24.938Z,15.10
2023-02-11T19:32:37.953Z,14.10
2023-02-11T19:35:53.317Z,14.40
2023-02-11T19:39:10.905Z,15.18
2023-02-11T19:42:14.594Z,13.98
2023-02-11T19:45:28.918Z,12.80
2023-02-11T19:48:44.911Z,14.37
2023-02-11T19:51:47.294Z,12.07
2023-02-11T19:55:08.942Z,13.23
2023-02-11T19:58:11.068Z,12.73
2023-02-11T20:01:27.998Z,14.05
2023-02-11T20:04:43.906Z,13.83
2023-02-11T20:07:45.749Z,15.33
2023-02-11T20:11:00.942Z,12.95
2023-02-11T20:14:04.025Z,13.32
2023-02-11T20:17:18.957Z,12.20
2023-02-11T20:20:21.189Z,12.93
2023-02-11T20:23:37.015Z,11.93
2023-02-11T20:26:39.039Z,13.32
2023-02-11T20:29:54.941Z,10.90
2023-02-11T20:32:57.500Z,12.57
2023-02-11T20:36:17.981Z,12.20
2023-02-11T20:39:28.967Z,12.53
2023-02-11T20:42:38.038Z,11.70
2023-02-11T20:45:47.081Z,12.23
2023-02-11T20:48:56.979Z,11.95
2023-02-11T20:52:06.004Z,11.67
2023-02-11T20:55:28.271Z,11.73
2023-02-11T20:58:32.070Z,11.82
2023-02-11T21:01:50.999Z,11.57
2023-02-11T21:04:53.077Z,10.95
2023-02-11T21:08:07.989Z,11.23
2023-02-11T21:11:10.133Z,11.60
2023-02-11T21:14:27.005Z,12.10
2023-02-11T21:17:29.218Z,11.98
2023-02-11T21:20:44.000Z,12.57
2023-02-11T21:24:02.971Z,12.33
2023-02-11T21:27:11.881Z,11.10
2023-02-11T21:30:27.963Z,12.18
2023-02-11T21:33:36.900Z,13.02
2023-02-11T21:36:46.071Z,11.65
2023-02-11T21:40:01.093Z,13.10
2023-02-11T21:43:09.932Z,11.03
2023-02-11T21:46:21.143Z,11.32
2023-02-11T21:49:30.100Z,11.38
2023-02-11T21:52:38.969Z,12.50
2023-02-11T21:56:10.049Z,12.53
2023-02-11T21:59:12.945Z,11.40
2023-02-11T22:02:27.986Z,11.45
2023-02-11T22:05:29.788Z,11.07
2023-02-11T22:08:45.981Z,10.70
2023-02-11T22:11:55.045Z,10.80
2023-02-11T22:15:11.018Z,10.03
2023-02-11T22:18:13.236Z,11.32
2023-02-11T22:21:29.007Z,11.38
2023-02-11T22:24:37.015Z,11.00
2023-02-11T22:27:53.010Z,11.13
2023-02-11T22:31:01.707Z,11.97
2023-02-11T22:34:17.003Z,10.57
2023-02-11T22:37:18.853Z,11.60
2023-02-11T22:40:34.007Z,11.43
2023-02-11T22:43:36.921Z,10.77
2023-02-11T22:46:52.011Z,10.67
2023-02-11T22:49:53.933Z,10.80
2023-02-11T22:53:08.982Z,11.25
2023-02-11T22:56:17.761Z,10.63
2023-02-11T22:59:36.034Z,10.70
2023-02-11T23:02:51.114Z,11.57
2023-02-11T23:05:53.171Z,11.35
2023-02-11T23:09:14.020Z,11.30
2023-02-11T23:12:22.994Z,11.82
2023-02-11T23:15:31.959Z,11.53
2023-02-11T23:18:42.003Z,11.60
2023-02-11T23:21:51.616Z,10.85
2023-02-11T23:25:00.014Z,11.20
2023-02-11T23:28:15.048Z,11.95
2023-02-11T23:31:20.242Z,11.60
2023-02-11T23:34:35.050Z,10.47
2023-02-11T23:37:36.883Z,11.40
2023-02-11T23:40:53.050Z,11.23
2023-02-11T23:44:02.131Z,10.65
2023-02-11T23:47:17.041Z,11.33
2023-02-11T23:50:32.065Z,11.20
2023-02-11T23:53:33.984Z,11.55
2023-02-11T23:56:56.046Z,11.10
